Time,TemperatureF,DewpointF,PressureIn,WindDirection,WindDirectionDegrees,WindSpeedMPH,WindSpeedGustMPH,Humidity,HourlyPrecipIn,Conditions,Clouds,dailyrainin,SoftwareType,DateUTC
2013-01-29 15:02:00,57.9,56.5,29.61,South,186,8.0,10.0,95,0.00,,,0.45,Wunderground v.1.15,2013-01-29 20:02:00,
2013-01-29 15:06:00,57.9,56.8,29.60,SW,221,8.0,10.0,96,0.00,,,0.45,Wunderground v.1.15,2013-01-29 20:06:00,
2013-01-29 15:12:00,58.0,56.9,29.61,SW,222,8.0,10.0,96,0.00,,,0.46,Wunderground v.1.15,2013-01-29 20:12:00,
2013-01-29 15:18:00,58.0,56.9,29.61,SSW,197,8.0,10.0,96,0.00,,,0.46,Wunderground v.1.15,2013-01-29 20:18:00,
2013-01-29 15:20:00,58.0,56.9,29.61,South,173,8.0,8.0,96,0.00,,,0.46,Wunderground v.1.15,2013-01-29 20:20:00,
2013-01-29 15:26:00,58.1,57.0,29.60,SSW,211,8.0,8.0,96,0.00,,,0.46,Wunderground v.1.15,2013-01-29 20:26:00,
2013-01-29 15:32:00,58.2,56.8,29.60,SSW,204,10.0,10.0,95,0.00,,,0.46,Wunderground v.1.15,2013-01-29 20:32:00,
2013-01-29 15:38:00,58.3,56.9,29.60,SSW,205,10.0,15.0,95,0.00,,,0.46,Wunderground v.1.15,2013-01-29 20:38:00,
2013-01-29 15:44:00,58.3,56.9,29.60,SSW,211,9.0,9.0,95,0.00,,,0.46,Wunderground v.1.15,2013-01-29 20:44:00,
2013-01-29 16:16:00,58.3,56.6,29.59,South,182,8.0,10.0,94,0.00,,,0.46,Wunderground v.1.15,2013-01-29 21:16:00,
2013-01-29 16:22:00,58.2,56.5,29.59,SSE,167,8.0,9.0,94,0.00,,,0.46,Wunderground v.1.15,2013-01-29 21:22:00,
2013-01-29 16:28:00,58.2,56.5,29.59,West,264,8.0,12.0,94,0.00,,,0.46,Wunderground v.1.15,2013-01-29 21:28:00,
2013-01-29 16:34:00,58.2,56.5,29.59,SW,217,8.0,10.0,94,0.00,,,0.46,Wunderground v.1.15,2013-01-29 21:34:00,
2013-01-29 16:40:00,58.2,56.5,29.59,SSW,197,8.0,14.0,94,0.00,,,0.46,Wunderground v.1.15,2013-01-29 21:40:00,
2013-01-29 16:46:00,58.3,56.6,29.58,SSW,212,9.0,14.0,94,0.00,,,0.46,Wunderground v.1.15,2013-01-29 21:46:00,
2013-01-29 16:52:00,58.3,56.6,29.58,SSW,208,9.0,10.0,94,0.00,,,0.46,Wunderground v.1.15,2013-01-29 21:52:00,
2013-01-29 17:00:00,58.3,56.6,29.58,SSW,211,9.0,10.0,94,0.00,,,0.46,Wunderground v.1.15,2013-01-29 22:00:00,
2013-01-29 17:06:00,58.3,56.6,29.58,South,179,8.0,18.0,94,0.00,,,0.46,Wunderground v.1.15,2013-01-29 22:06:00,
2013-01-29 17:12:00,58.3,56.6,29.58,SSW,200,9.0,9.0,94,0.00,,,0.46,Wunderground v.1.15,2013-01-29 22:12:00,
2013-01-29 17:20:00,58.3,56.6,29.58,SW,217,9.0,9.0,94,0.00,,,0.46,Wunderground v.1.15,2013-01-29 22:20:00,
2013-01-29 17:26:00,58.3,56.6,29.57,SW,219,9.0,11.0,94,0.00,,,0.46,Wunderground v.1.15,2013-01-29 22:26:00,
2013-01-29 17:32:00,58.3,56.6,29.57,SSW,211,9.0,9.0,94,0.00,,,0.46,Wunderground v.1.15,2013-01-29 22:32:00,
2013-01-29 17:38:00,58.4,57.0,29.56,South,174,10.0,12.0,95,0.00,,,0.46,Wunderground v.1.15,2013-01-29 22:38:00,
2013-01-29 17:44:00,58.4,56.7,29.56,South,173,10.0,10.0,94,0.00,,,0.46,Wunderground v.1.15,2013-01-29 22:44:00,
2013-01-29 17:50:00,58.4,56.7,29.55,South,174,9.0,9.0,94,0.00,,,0.46,Wunderground v.1.15,2013-01-29 22:50:00,
2013-01-29 17:56:00,58.4,56.7,29.55,SW,218,10.0,10.0,94,0.00,,,0.46,Wunderground v.1.15,2013-01-29 22:56:00,
2013-01-29 20:48:00,59.1,56.2,29.43,South,184,14.0,18.0,90,0.00,,,0.46,Wunderground v.1.15,2013-01-30 01:48:00,
2013-01-29 20:56:00,59.1,55.9,29.42,SW,215,14.0,14.0,89,0.00,,,0.46,Wunderground v.1.15,2013-01-30 01:56:00,
2013-01-29 21:02:00,59.2,56.0,29.42,South,186,14.0,14.0,89,0.00,,,0.46,Wunderground v.1.15,2013-01-30 02:02:00,
2013-01-29 21:08:00,59.2,56.0,29.43,SW,229,12.0,14.0,89,0.00,,,0.46,Wunderground v.1.15,2013-01-30 02:08:00,
2013-01-29 21:14:00,59.3,56.1,29.44,South,188,11.0,12.0,89,0.00,,,0.46,Wunderground v.1.15,2013-01-30 02:14:00,
2013-01-29 21:20:00,59.3,56.1,29.45,SSW,198,11.0,11.0,89,0.00,,,0.47,Wunderground v.1.15,2013-01-30 02:20:00,
2013-01-29 21:26:00,59.0,56.1,29.46,SSW,204,9.0,11.0,90,0.58,,,0.50,Wunderground v.1.15,2013-01-30 02:26:00,
2013-01-29 21:32:00,58.4,55.8,29.46,WSW,256,8.0,9.0,91,0.24,,,0.53,Wunderground v.1.15,2013-01-30 02:32:00,
2013-01-29 21:38:00,57.8,55.5,29.46,SSW,208,8.0,9.0,92,0.07,,,0.53,Wunderground v.1.15,2013-01-30 02:38:00,
2013-01-29 21:44:00,57.5,55.5,29.44,WSW,249,7.0,8.0,93,0.15,,,0.55,Wunderground v.1.15,2013-01-30 02:44:00,
2013-01-29 21:50:00,57.2,55.5,29.45,NNW,329,5.0,5.0,94,0.12,,,0.56,Wunderground v.1.15,2013-01-30 02:50:00,
2013-01-29 21:56:00,55.6,53.0,29.44,NW,312,7.0,14.0,91,0.14,,,0.58,Wunderground v.1.15,2013-01-30 02:56:00,
2013-01-29 22:02:00,54.1,52.1,29.44,WNW,297,7.0,7.0,93,0.09,,,0.58,Wunderground v.1.15,2013-01-30 03:02:00,
2013-01-29 22:08:00,53.2,51.5,29.44,NW,312,5.0,7.0,94,0.07,,,0.59,Wunderground v.1.15,2013-01-30 03:08:00,
2013-01-29 22:14:00,52.8,51.4,29.45,NW,304,5.0,7.0,95,0.05,,,0.59,Wunderground v.1.15,2013-01-30 03:14:00,
2013-01-29 22:20:00,52.7,51.6,29.45,WSW,253,4.0,4.0,96,0.15,,,0.61,Wunderground v.1.15,2013-01-30 03:20:00,